sensor_id;sensor_type;location;lat;lon;timestamp;P1;durP1;ratioP1;P2;durP2;ratioP2
5869;SDS011;2961;47.702;9.410;2022-10-16T00:01:13;6.10;;;3.47;;
5869;SDS011;2961;47.702;9.410;2022-10-16T00:03:43;7.10;;;3.40;;
5869;SDS011;2961;47.702;9.410;2022-10-16T00:06:12;5.33;;;3.97;;
5869;SDS011;2961;47.702;9.410;2022-10-16T00:08:39;3.47;;;3.17;;
5869;SDS011;2961;47.702;9.410;2022-10-16T00:11:07;6.37;;;3.03;;
5869;SDS011;2961;47.702;9.410;2022-10-16T00:13:36;4.77;;;3.83;;
5869;SDS011;2961;47.702;9.410;2022-10-16T00:16:05;4.97;;;4.23;;
5869;SDS011;2961;47.702;9.410;2022-10-16T00:18:33;4.00;;;3.70;;
5869;SDS011;2961;47.702;9.410;2022-10-16T00:21:03;6.30;;;4.50;;
5869;SDS011;2961;47.702;9.410;2022-10-16T00:23:32;10.00;;;4.27;;
5869;SDS011;2961;47.702;9.410;2022-10-16T00:26:00;11.13;;;4.03;;
5869;SDS011;2961;47.702;9.410;2022-10-16T00:28:28;10.47;;;4.00;;
5869;SDS011;2961;47.702;9.410;2022-10-16T00:30:56;4.23;;;3.90;;
5869;SDS011;2961;47.702;9.410;2022-10-16T00:33:23;8.30;;;3.30;;
5869;SDS011;2961;47.702;9.410;2022-10-16T00:35:49;3.90;;;3.60;;
5869;SDS011;2961;47.702;9.410;2022-10-16T00:38:16;6.90;;;3.83;;
5869;SDS011;2961;47.702;9.410;2022-10-16T00:40:45;4.50;;;3.50;;
5869;SDS011;2961;47.702;9.410;2022-10-16T00:43:12;3.63;;;3.33;;
5869;SDS011;2961;47.702;9.410;2022-10-16T00:45:58;7.70;;;3.83;;
5869;SDS011;2961;47.702;9.410;2022-10-16T00:48:25;7.40;;;3.53;;
5869;SDS011;2961;47.702;9.410;2022-10-16T00:50:52;5.60;;;3.87;;
5869;SDS011;2961;47.702;9.410;2022-10-16T00:53:19;12.70;;;3.80;;
5869;SDS011;2961;47.702;9.410;2022-10-16T00:55:48;3.87;;;3.47;;
5869;SDS011;2961;47.702;9.410;2022-10-16T00:58:15;3.13;;;2.93;;
5869;SDS011;2961;47.702;9.410;2022-10-16T01:00:42;3.97;;;3.10;;
5869;SDS011;2961;47.702;9.410;2022-10-16T01:03:22;6.67;;;3.37;;
5869;SDS011;2961;47.702;9.410;2022-10-16T01:05:53;3.40;;;3.20;;
5869;SDS011;2961;47.702;9.410;2022-10-16T01:08:29;3.27;;;2.97;;
5869;SDS011;2961;47.702;9.410;2022-10-16T01:11:07;7.83;;;3.97;;
5869;SDS011;2961;47.702;9.410;2022-10-16T01:13:43;6.20;;;3.97;;
5869;SDS011;2961;47.702;9.410;2022-10-16T01:16:15;5.27;;;3.70;;
5869;SDS011;2961;47.702;9.410;2022-10-16T01:18:49;5.80;;;3.60;;
5869;SDS011;2961;47.702;9.410;2022-10-16T01:21:22;3.60;;;3.30;;
5869;SDS011;2961;47.702;9.410;2022-10-16T01:24:04;7.53;;;3.50;;
5869;SDS011;2961;47.702;9.410;2022-10-16T01:26:43;5.27;;;3.60;;
5869;SDS011;2961;47.702;9.410;2022-10-16T01:29:22;3.40;;;3.10;;
5869;SDS011;2961;47.702;9.410;2022-10-16T01:31:53;10.00;;;4.07;;
5869;SDS011;2961;47.702;9.410;2022-10-16T01:34:27;3.30;;;2.90;;
5869;SDS011;2961;47.702;9.410;2022-10-16T01:36:59;3.23;;;3.07;;
5869;SDS011;2961;47.702;9.410;2022-10-16T01:39:32;5.30;;;3.43;;
5869;SDS011;2961;47.702;9.410;2022-10-16T01:42:04;4.40;;;3.20;;
5869;SDS011;2961;47.702;9.410;2022-10-16T01:44:35;10.20;;;3.73;;
5869;SDS011;2961;47.702;9.410;2022-10-16T01:47:05;7.93;;;2.90;;
5869;SDS011;2961;47.702;9.410;2022-10-16T01:49:33;7.23;;;3.30;;
5869;SDS011;2961;47.702;9.410;2022-10-16T01:52:04;3.17;;;2.97;;
5869;SDS011;2961;47.702;9.410;2022-10-16T01:54:35;5.50;;;3.07;;
5869;SDS011;2961;47.702;9.410;2022-10-16T01:57:04;2.80;;;2.67;;
5869;SDS011;2961;47.702;9.410;2022-10-16T01:59:35;7.20;;;3.20;;
5869;SDS011;2961;47.702;9.410;2022-10-16T02:02:06;5.60;;;3.20;;
5869;SDS011;2961;47.702;9.410;2022-10-16T02:04:36;3.00;;;2.80;;
5869;SDS011;2961;47.702;9.410;2022-10-16T02:07:06;3.60;;;3.00;;
5869;SDS011;2961;47.702;9.410;2022-10-16T02:09:33;8.00;;;3.33;;
5869;SDS011;2961;47.702;9.410;2022-10-16T02:12:03;15.37;;;3.07;;
5869;SDS011;2961;47.702;9.410;2022-10-16T02:14:38;4.07;;;3.77;;
5869;SDS011;2961;47.702;9.410;2022-10-16T02:17:09;7.17;;;3.10;;
5869;SDS011;2961;47.702;9.410;2022-10-16T02:19:37;4.50;;;3.17;;
5869;SDS011;2961;47.702;9.410;2022-10-16T02:22:04;11.83;;;3.00;;
5869;SDS011;2961;47.702;9.410;2022-10-16T02:24:35;7.27;;;2.70;;
5869;SDS011;2961;47.702;9.410;2022-10-16T02:27:09;3.30;;;2.80;;
5869;SDS011;2961;47.702;9.410;2022-10-16T02:29:41;9.37;;;3.10;;
5869;SDS011;2961;47.702;9.410;2022-10-16T02:32:13;10.43;;;3.47;;
5869;SDS011;2961;47.702;9.410;2022-10-16T02:34:45;12.20;;;3.10;;
5869;SDS011;2961;47.702;9.410;2022-10-16T02:37:14;6.10;;;3.77;;
5869;SDS011;2961;47.702;9.410;2022-10-16T02:39:43;7.27;;;3.30;;
5869;SDS011;2961;47.702;9.410;2022-10-16T02:42:11;3.13;;;2.63;;
5869;SDS011;2961;47.702;9.410;2022-10-16T02:44:38;9.50;;;3.10;;
5869;SDS011;2961;47.702;9.410;2022-10-16T02:47:06;3.60;;;2.80;;
5869;SDS011;2961;47.702;9.410;2022-10-16T02:49:33;6.07;;;3.00;;
5869;SDS011;2961;47.702;9.410;2022-10-16T02:51:59;7.60;;;2.43;;
5869;SDS011;2961;47.702;9.410;2022-10-16T02:54:26;4.27;;;3.03;;
5869;SDS011;2961;47.702;9.410;2022-10-16T02:56:53;6.73;;;2.53;;
5869;SDS011;2961;47.702;9.410;2022-10-16T02:59:20;6.93;;;3.03;;
5869;SDS011;2961;47.702;9.410;2022-10-16T03:01:46;2.60;;;2.50;;
5869;SDS011;2961;47.702;9.410;2022-10-16T03:04:14;4.93;;;3.17;;
5869;SDS011;2961;47.702;9.410;2022-10-16T03:06:41;2.90;;;2.50;;
5869;SDS011;2961;47.702;9.410;2022-10-16T03:09:08;3.00;;;2.67;;
5869;SDS011;2961;47.702;9.410;2022-10-16T03:11:35;6.97;;;3.90;;
5869;SDS011;2961;47.702;9.410;2022-10-16T03:14:01;3.40;;;3.10;;
5869;SDS011;2961;47.702;9.410;2022-10-16T03:16:28;4.57;;;3.10;;
5869;SDS011;2961;47.702;9.410;2022-10-16T03:18:55;3.20;;;2.67;;
5869;SDS011;2961;47.702;9.410;2022-10-16T03:21:23;4.73;;;2.53;;
5869;SDS011;2961;47.702;9.410;2022-10-16T03:23:50;10.23;;;2.93;;
5869;SDS011;2961;47.702;9.410;2022-10-16T03:26:17;5.80;;;2.30;;
5869;SDS011;2961;47.702;9.410;2022-10-16T03:28:43;5.50;;;2.93;;
5869;SDS011;2961;47.702;9.410;2022-10-16T03:31:10;9.53;;;2.40;;
5869;SDS011;2961;47.702;9.410;2022-10-16T03:33:37;8.60;;;2.20;;
5869;SDS011;2961;47.702;9.410;2022-10-16T03:36:04;3.03;;;2.83;;
5869;SDS011;2961;47.702;9.410;2022-10-16T03:38:32;12.17;;;2.93;;
5869;SDS011;2961;47.702;9.410;2022-10-16T03:40:59;2.60;;;2.50;;
5869;SDS011;2961;47.702;9.410;2022-10-16T03:43:26;5.20;;;2.53;;
5869;SDS011;2961;47.702;9.410;2022-10-16T03:45:52;4.00;;;2.53;;
5869;SDS011;2961;47.702;9.410;2022-10-16T03:48:19;6.07;;;2.70;;
5869;SDS011;2961;47.702;9.410;2022-10-16T03:50:46;5.40;;;3.00;;
5869;SDS011;2961;47.702;9.410;2022-10-16T03:53:13;3.03;;;2.80;;
5869;SDS011;2961;47.702;9.410;2022-10-16T03:55:42;6.27;;;3.40;;
5869;SDS011;2961;47.702;9.410;2022-10-16T03:58:09;7.20;;;3.27;;
5869;SDS011;2961;47.702;9.410;2022-10-16T04:00:36;2.90;;;2.70;;
5869;SDS011;2961;47.702;9.410;2022-10-16T04:03:06;5.23;;;2.80;;
5869;SDS011;2961;47.702;9.410;2022-10-16T04:05:33;3.20;;;2.40;;
5869;SDS011;2961;47.702;9.410;2022-10-16T04:08:00;3.90;;;2.73;;
5869;SDS011;2961;47.702;9.410;2022-10-16T04:10:26;4.20;;;2.90;;
5869;SDS011;2961;47.702;9.410;2022-10-16T04:12:54;2.37;;;2.27;;
5869;SDS011;2961;47.702;9.410;2022-10-16T04:15:21;2.93;;;2.23;;
5869;SDS011;2961;47.702;9.410;2022-10-16T04:17:48;2.77;;;2.60;;
5869;SDS011;2961;47.702;9.410;2022-10-16T04:20:15;5.90;;;2.87;;
5869;SDS011;2961;47.702;9.410;2022-10-16T04:22:42;2.80;;;2.60;;
5869;SDS011;2961;47.702;9.410;2022-10-16T04:25:10;5.37;;;2.20;;
5869;SDS011;2961;47.702;9.410;2022-10-16T04:27:37;1.97;;;1.87;;
5869;SDS011;2961;47.702;9.410;2022-10-16T04:30:06;2.40;;;2.30;;
5869;SDS011;2961;47.702;9.410;2022-10-16T04:32:33;2.60;;;2.40;;
5869;SDS011;2961;47.702;9.410;2022-10-16T04:35:00;2.77;;;2.67;;
5869;SDS011;2961;47.702;9.410;2022-10-16T04:37:27;5.27;;;2.97;;
5869;SDS011;2961;47.702;9.410;2022-10-16T04:39:54;6.90;;;3.00;;
5869;SDS011;2961;47.702;9.410;2022-10-16T04:42:21;4.00;;;2.50;;
5869;SDS011;2961;47.702;9.410;2022-10-16T04:44:48;14.10;;;3.07;;
5869;SDS011;2961;47.702;9.410;2022-10-16T04:47:16;11.73;;;3.27;;
5869;SDS011;2961;47.702;9.410;2022-10-16T04:49:42;6.00;;;3.00;;
5869;SDS011;2961;47.702;9.410;2022-10-16T04:52:09;4.30;;;3.47;;
5869;SDS011;2961;47.702;9.410;2022-10-16T04:54:36;5.23;;;2.73;;
5869;SDS011;2961;47.702;9.410;2022-10-16T04:57:03;6.73;;;2.73;;
5869;SDS011;2961;47.702;9.410;2022-10-16T04:59:29;3.27;;;1.97;;
5869;SDS011;2961;47.702;9.410;2022-10-16T05:01:56;2.30;;;2.20;;
5869;SDS011;2961;47.702;9.410;2022-10-16T05:04:38;2.50;;;2.30;;
5869;SDS011;2961;47.702;9.410;2022-10-16T05:07:05;2.43;;;2.20;;
5869;SDS011;2961;47.702;9.410;2022-10-16T05:09:32;2.90;;;2.50;;
5869;SDS011;2961;47.702;9.410;2022-10-16T05:11:58;3.80;;;2.80;;
5869;SDS011;2961;47.702;9.410;2022-10-16T05:14:25;3.83;;;2.30;;
5869;SDS011;2961;47.702;9.410;2022-10-16T05:16:52;5.23;;;3.33;;
5869;SDS011;2961;47.702;9.410;2022-10-16T05:19:19;3.60;;;3.30;;
5869;SDS011;2961;47.702;9.410;2022-10-16T05:21:47;3.57;;;2.43;;
5869;SDS011;2961;47.702;9.410;2022-10-16T05:24:14;2.33;;;2.23;;
5869;SDS011;2961;47.702;9.410;2022-10-16T05:26:40;2.70;;;2.50;;
5869;SDS011;2961;47.702;9.410;2022-10-16T05:29:07;6.40;;;2.80;;
5869;SDS011;2961;47.702;9.410;2022-10-16T05:31:34;2.57;;;2.47;;
5869;SDS011;2961;47.702;9.410;2022-10-16T05:34:01;3.00;;;2.80;;
5869;SDS011;2961;47.702;9.410;2022-10-16T05:36:28;2.40;;;2.30;;
5869;SDS011;2961;47.702;9.410;2022-10-16T05:38:56;5.60;;;2.33;;
5869;SDS011;2961;47.702;9.410;2022-10-16T05:41:23;2.40;;;2.20;;
5869;SDS011;2961;47.702;9.410;2022-10-16T05:43:51;2.13;;;1.93;;
5869;SDS011;2961;47.702;9.410;2022-10-16T05:46:18;4.40;;;2.43;;
5869;SDS011;2961;47.702;9.410;2022-10-16T05:48:45;2.47;;;2.27;;
5869;SDS011;2961;47.702;9.410;2022-10-16T05:51:12;2.20;;;2.10;;
5869;SDS011;2961;47.702;9.410;2022-10-16T05:53:40;2.70;;;2.20;;
5869;SDS011;2961;47.702;9.410;2022-10-16T05:56:10;5.03;;;2.40;;
5869;SDS011;2961;47.702;9.410;2022-10-16T05:58:37;5.60;;;2.70;;
5869;SDS011;2961;47.702;9.410;2022-10-16T06:01:06;7.80;;;2.77;;
5869;SDS011;2961;47.702;9.410;2022-10-16T06:03:36;4.10;;;3.20;;
5869;SDS011;2961;47.702;9.410;2022-10-16T06:06:07;6.00;;;2.87;;
5869;SDS011;2961;47.702;9.410;2022-10-16T06:08:34;8.37;;;3.10;;
5869;SDS011;2961;47.702;9.410;2022-10-16T06:11:01;9.70;;;4.00;;
5869;SDS011;2961;47.702;9.410;2022-10-16T06:13:29;7.10;;;3.53;;
5869;SDS011;2961;47.702;9.410;2022-10-16T06:15:57;5.33;;;2.83;;
5869;SDS011;2961;47.702;9.410;2022-10-16T06:18:24;4.13;;;2.80;;
5869;SDS011;2961;47.702;9.410;2022-10-16T06:20:51;6.30;;;3.27;;
5869;SDS011;2961;47.702;9.410;2022-10-16T06:23:18;6.17;;;4.20;;
5869;SDS011;2961;47.702;9.410;2022-10-16T06:25:45;4.00;;;3.33;;
5869;SDS011;2961;47.702;9.410;2022-10-16T06:28:13;3.50;;;3.23;;
5869;SDS011;2961;47.702;9.410;2022-10-16T06:30:42;3.40;;;3.10;;
5869;SDS011;2961;47.702;9.410;2022-10-16T06:33:09;2.83;;;2.63;;
5869;SDS011;2961;47.702;9.410;2022-10-16T06:35:35;12.20;;;2.50;;
5869;SDS011;2961;47.702;9.410;2022-10-16T06:38:02;2.83;;;2.63;;
5869;SDS011;2961;47.702;9.410;2022-10-16T06:40:29;2.80;;;1.97;;
5869;SDS011;2961;47.702;9.410;2022-10-16T06:42:56;1.83;;;1.73;;
5869;SDS011;2961;47.702;9.410;2022-10-16T06:45:23;2.83;;;1.97;;
5869;SDS011;2961;47.702;9.410;2022-10-16T06:47:51;6.53;;;1.63;;
5869;SDS011;2961;47.702;9.410;2022-10-16T06:50:17;5.17;;;2.20;;
5869;SDS011;2961;47.702;9.410;2022-10-16T06:52:44;3.90;;;1.90;;
5869;SDS011;2961;47.702;9.410;2022-10-16T06:55:11;8.60;;;1.83;;
5869;SDS011;2961;47.702;9.410;2022-10-16T06:57:38;1.77;;;1.70;;
5869;SDS011;2961;47.702;9.410;2022-10-16T07:00:05;1.90;;;1.60;;
5869;SDS011;2961;47.702;9.410;2022-10-16T07:02:32;5.87;;;2.40;;
5869;SDS011;2961;47.702;9.410;2022-10-16T07:05:00;1.87;;;1.77;;
5869;SDS011;2961;47.702;9.410;2022-10-16T07:07:27;6.87;;;1.80;;
5869;SDS011;2961;47.702;9.410;2022-10-16T07:09:54;5.13;;;1.87;;
5869;SDS011;2961;47.702;9.410;2022-10-16T07:12:21;9.07;;;2.37;;
5869;SDS011;2961;47.702;9.410;2022-10-16T07:14:48;4.67;;;1.83;;
5869;SDS011;2961;47.702;9.410;2022-10-16T07:17:17;19.60;;;2.50;;
5869;SDS011;2961;47.702;9.410;2022-10-16T07:19:44;2.37;;;2.17;;
5869;SDS011;2961;47.702;9.410;2022-10-16T07:22:12;2.43;;;2.17;;
5869;SDS011;2961;47.702;9.410;2022-10-16T07:24:39;8.60;;;2.30;;
5869;SDS011;2961;47.702;9.410;2022-10-16T07:27:09;4.10;;;2.70;;
5869;SDS011;2961;47.702;9.410;2022-10-16T07:29:36;9.03;;;3.40;;
5869;SDS011;2961;47.702;9.410;2022-10-16T07:32:03;7.50;;;3.40;;
5869;SDS011;2961;47.702;9.410;2022-10-16T07:34:30;3.23;;;2.97;;
5869;SDS011;2961;47.702;9.410;2022-10-16T07:36:56;11.80;;;4.13;;
5869;SDS011;2961;47.702;9.410;2022-10-16T07:39:25;5.23;;;3.27;;
5869;SDS011;2961;47.702;9.410;2022-10-16T07:41:51;7.33;;;2.87;;
5869;SDS011;2961;47.702;9.410;2022-10-16T07:44:18;6.80;;;3.03;;
5869;SDS011;2961;47.702;9.410;2022-10-16T07:46:45;3.20;;;2.90;;
5869;SDS011;2961;47.702;9.410;2022-10-16T07:49:12;4.10;;;2.90;;
5869;SDS011;2961;47.702;9.410;2022-10-16T07:51:38;2.47;;;2.27;;
5869;SDS011;2961;47.702;9.410;2022-10-16T07:54:05;3.40;;;2.10;;
5869;SDS011;2961;47.702;9.410;2022-10-16T07:56:33;7.50;;;2.80;;
5869;SDS011;2961;47.702;9.410;2022-10-16T07:59:00;3.40;;;2.90;;
5869;SDS011;2961;47.702;9.410;2022-10-16T08:01:27;6.23;;;2.63;;
5869;SDS011;2961;47.702;9.410;2022-10-16T08:03:54;2.70;;;1.93;;
5869;SDS011;2961;47.702;9.410;2022-10-16T08:06:21;5.40;;;2.50;;
5869;SDS011;2961;47.702;9.410;2022-10-16T08:08:48;4.80;;;2.73;;
5869;SDS011;2961;47.702;9.410;2022-10-16T08:11:15;2.60;;;2.40;;
5869;SDS011;2961;47.702;9.410;2022-10-16T08:13:43;2.13;;;2.03;;
5869;SDS011;2961;47.702;9.410;2022-10-16T08:16:10;2.37;;;2.17;;
5869;SDS011;2961;47.702;9.410;2022-10-16T08:18:37;3.43;;;1.73;;
5869;SDS011;2961;47.702;9.410;2022-10-16T08:21:05;2.93;;;2.60;;
5869;SDS011;2961;47.702;9.410;2022-10-16T08:23:34;6.27;;;2.03;;
5869;SDS011;2961;47.702;9.410;2022-10-16T08:26:04;4.43;;;2.90;;
5869;SDS011;2961;47.702;9.410;2022-10-16T08:28:32;2.53;;;2.00;;
5869;SDS011;2961;47.702;9.410;2022-10-16T08:31:05;2.33;;;2.23;;
5869;SDS011;2961;47.702;9.410;2022-10-16T08:33:34;2.13;;;2.00;;
5869;SDS011;2961;47.702;9.410;2022-10-16T08:36:01;4.53;;;2.00;;
5869;SDS011;2961;47.702;9.410;2022-10-16T08:38:28;2.70;;;2.50;;
5869;SDS011;2961;47.702;9.410;2022-10-16T08:40:55;7.50;;;3.13;;
5869;SDS011;2961;47.702;9.410;2022-10-16T08:43:34;3.67;;;2.20;;
5869;SDS011;2961;47.702;9.410;2022-10-16T08:46:19;2.13;;;1.93;;
5869;SDS011;2961;47.702;9.410;2022-10-16T08:48:56;8.37;;;2.13;;
5869;SDS011;2961;47.702;9.410;2022-10-16T08:51:26;4.10;;;2.13;;
5869;SDS011;2961;47.702;9.410;2022-10-16T08:53:56;3.13;;;1.47;;
5869;SDS011;2961;47.702;9.410;2022-10-16T08:56:24;2.77;;;1.97;;
5869;SDS011;2961;47.702;9.410;2022-10-16T08:58:52;2.37;;;2.10;;
5869;SDS011;2961;47.702;9.410;2022-10-16T09:01:22;2.13;;;1.93;;
5869;SDS011;2961;47.702;9.410;2022-10-16T09:03:56;2.47;;;2.00;;
5869;SDS011;2961;47.702;9.410;2022-10-16T09:06:38;4.70;;;2.77;;
5869;SDS011;2961;47.702;9.410;2022-10-16T09:09:14;1.67;;;1.50;;
5869;SDS011;2961;47.702;9.410;2022-10-16T09:11:53;3.27;;;2.53;;
5869;SDS011;2961;47.702;9.410;2022-10-16T09:14:37;4.67;;;2.07;;
5869;SDS011;2961;47.702;9.410;2022-10-16T09:20:03;4.17;;;2.00;;
5869;SDS011;2961;47.702;9.410;2022-10-16T09:22:55;5.43;;;1.93;;
5869;SDS011;2961;47.702;9.410;2022-10-16T09:25:36;4.53;;;2.00;;
5869;SDS011;2961;47.702;9.410;2022-10-16T09:28:04;2.47;;;2.20;;
5869;SDS011;2961;47.702;9.410;2022-10-16T09:30:31;8.33;;;2.23;;
5869;SDS011;2961;47.702;9.410;2022-10-16T09:32:59;5.53;;;1.80;;
5869;SDS011;2961;47.702;9.410;2022-10-16T09:35:31;3.17;;;1.87;;
5869;SDS011;2961;47.702;9.410;2022-10-16T09:38:02;2.27;;;2.07;;
5869;SDS011;2961;47.702;9.410;2022-10-16T09:40:30;5.17;;;1.70;;
5869;SDS011;2961;47.702;9.410;2022-10-16T09:43:01;2.03;;;1.90;;
5869;SDS011;2961;47.702;9.410;2022-10-16T09:45:32;4.10;;;2.03;;
5869;SDS011;2961;47.702;9.410;2022-10-16T09:48:02;5.53;;;1.87;;
5869;SDS011;2961;47.702;9.410;2022-10-16T09:50:37;8.13;;;1.70;;
5869;SDS011;2961;47.702;9.410;2022-10-16T09:53:04;2.00;;;1.53;;
5869;SDS011;2961;47.702;9.410;2022-10-16T09:55:34;2.07;;;1.87;;
5869;SDS011;2961;47.702;9.410;2022-10-16T09:58:01;2.97;;;1.97;;
5869;SDS011;2961;47.702;9.410;2022-10-16T10:00:28;2.90;;;1.30;;
5869;SDS011;2961;47.702;9.410;2022-10-16T10:02:55;3.30;;;1.30;;
5869;SDS011;2961;47.702;9.410;2022-10-16T10:05:24;1.87;;;1.77;;
5869;SDS011;2961;47.702;9.410;2022-10-16T10:07:54;4.37;;;1.27;;
5869;SDS011;2961;47.702;9.410;2022-10-16T10:10:23;4.63;;;1.40;;
5869;SDS011;2961;47.702;9.410;2022-10-16T10:12:51;2.63;;;1.37;;
5869;SDS011;2961;47.702;9.410;2022-10-16T10:15:19;1.57;;;1.47;;
5869;SDS011;2961;47.702;9.410;2022-10-16T10:17:47;1.53;;;1.20;;
5869;SDS011;2961;47.702;9.410;2022-10-16T10:20:23;3.03;;;1.53;;
5869;SDS011;2961;47.702;9.410;2022-10-16T10:22:52;4.67;;;1.43;;
5869;SDS011;2961;47.702;9.410;2022-10-16T10:25:26;1.50;;;1.50;;
5869;SDS011;2961;47.702;9.410;2022-10-16T10:28:24;1.80;;;1.20;;
5869;SDS011;2961;47.702;9.410;2022-10-16T10:31:10;6.10;;;1.67;;
5869;SDS011;2961;47.702;9.410;2022-10-16T10:33:42;1.50;;;1.50;;
5869;SDS011;2961;47.702;9.410;2022-10-16T10:36:16;1.40;;;1.37;;
5869;SDS011;2961;47.702;9.410;2022-10-16T10:38:53;2.10;;;1.50;;
5869;SDS011;2961;47.702;9.410;2022-10-16T10:44:21;4.30;;;1.20;;
5869;SDS011;2961;47.702;9.410;2022-10-16T10:46:56;1.10;;;1.10;;
5869;SDS011;2961;47.702;9.410;2022-10-16T10:49:31;4.73;;;1.27;;
5869;SDS011;2961;47.702;9.410;2022-10-16T10:52:17;1.73;;;1.63;;
5869;SDS011;2961;47.702;9.410;2022-10-16T10:55:02;1.80;;;1.57;;
5869;SDS011;2961;47.702;9.410;2022-10-16T10:57:37;3.80;;;1.53;;
5869;SDS011;2961;47.702;9.410;2022-10-16T11:00:16;2.30;;;1.03;;
5869;SDS011;2961;47.702;9.410;2022-10-16T11:02:48;2.20;;;1.33;;
5869;SDS011;2961;47.702;9.410;2022-10-16T11:08:13;2.97;;;1.07;;
5869;SDS011;2961;47.702;9.410;2022-10-16T11:10:47;4.83;;;0.93;;
5869;SDS011;2961;47.702;9.410;2022-10-16T11:13:23;1.33;;;0.90;;
5869;SDS011;2961;47.702;9.410;2022-10-16T11:15:57;2.43;;;1.60;;
5869;SDS011;2961;47.702;9.410;2022-10-16T11:18:27;1.80;;;1.20;;
5869;SDS011;2961;47.702;9.410;2022-10-16T11:21:00;1.33;;;1.23;;
5869;SDS011;2961;47.702;9.410;2022-10-16T11:23:33;0.90;;;0.90;;
5869;SDS011;2961;47.702;9.410;2022-10-16T11:26:10;7.30;;;1.40;;
5869;SDS011;2961;47.702;9.410;2022-10-16T11:28:42;1.93;;;1.43;;
5869;SDS011;2961;47.702;9.410;2022-10-16T11:31:12;1.23;;;1.10;;
5869;SDS011;2961;47.702;9.410;2022-10-16T11:33:44;4.00;;;1.00;;
5869;SDS011;2961;47.702;9.410;2022-10-16T11:36:16;0.80;;;0.80;;
5869;SDS011;2961;47.702;9.410;2022-10-16T11:38:50;1.97;;;1.20;;
5869;SDS011;2961;47.702;9.410;2022-10-16T11:41:22;1.07;;;1.07;;
5869;SDS011;2961;47.702;9.410;2022-10-16T11:43:57;1.60;;;0.90;;
5869;SDS011;2961;47.702;9.410;2022-10-16T11:46:32;1.67;;;0.70;;
5869;SDS011;2961;47.702;9.410;2022-10-16T11:49:06;2.77;;;1.30;;
5869;SDS011;2961;47.702;9.410;2022-10-16T11:51:39;4.47;;;0.93;;
5869;SDS011;2961;47.702;9.410;2022-10-16T11:54:14;0.87;;;0.87;;
5869;SDS011;2961;47.702;9.410;2022-10-16T11:56:48;1.10;;;1.07;;
5869;SDS011;2961;47.702;9.410;2022-10-16T11:59:20;2.67;;;0.80;;
5869;SDS011;2961;47.702;9.410;2022-10-16T12:01:53;2.40;;;1.17;;
5869;SDS011;2961;47.702;9.410;2022-10-16T12:04:30;0.90;;;0.90;;
5869;SDS011;2961;47.702;9.410;2022-10-16T12:07:05;2.10;;;1.13;;
5869;SDS011;2961;47.702;9.410;2022-10-16T12:09:37;2.00;;;1.73;;
5869;SDS011;2961;47.702;9.410;2022-10-16T12:14:59;0.77;;;0.77;;
5869;SDS011;2961;47.702;9.410;2022-10-16T12:17:33;2.10;;;0.80;;
5869;SDS011;2961;47.702;9.410;2022-10-16T12:20:12;1.47;;;0.83;;
5869;SDS011;2961;47.702;9.410;2022-10-16T12:22:47;7.37;;;0.90;;
5869;SDS011;2961;47.702;9.410;2022-10-16T12:25:24;3.80;;;0.83;;
5869;SDS011;2961;47.702;9.410;2022-10-16T12:27:57;0.73;;;0.73;;
5869;SDS011;2961;47.702;9.410;2022-10-16T12:30:26;0.83;;;0.83;;
5869;SDS011;2961;47.702;9.410;2022-10-16T12:32:55;1.03;;;0.93;;
5869;SDS011;2961;47.702;9.410;2022-10-16T12:35:25;2.40;;;1.30;;
5869;SDS011;2961;47.702;9.410;2022-10-16T12:37:54;1.70;;;1.60;;
5869;SDS011;2961;47.702;9.410;2022-10-16T12:40:36;1.80;;;1.70;;
5869;SDS011;2961;47.702;9.410;2022-10-16T12:43:11;2.00;;;1.90;;
5869;SDS011;2961;47.702;9.410;2022-10-16T12:45:39;2.00;;;1.90;;
5869;SDS011;2961;47.702;9.410;2022-10-16T12:48:18;5.00;;;1.90;;
5869;SDS011;2961;47.702;9.410;2022-10-16T12:50:46;2.40;;;2.27;;
5869;SDS011;2961;47.702;9.410;2022-10-16T12:53:17;10.23;;;3.07;;
5869;SDS011;2961;47.702;9.410;2022-10-16T12:55:50;2.10;;;1.93;;
5869;SDS011;2961;47.702;9.410;2022-10-16T12:58:49;2.40;;;2.30;;
5869;SDS011;2961;47.702;9.410;2022-10-16T13:01:26;3.20;;;2.37;;
5869;SDS011;2961;47.702;9.410;2022-10-16T13:04:20;2.57;;;2.43;;
5869;SDS011;2961;47.702;9.410;2022-10-16T13:06:58;1.97;;;1.87;;
5869;SDS011;2961;47.702;9.410;2022-10-16T13:09:36;8.10;;;3.80;;
5869;SDS011;2961;47.702;9.410;2022-10-16T13:12:15;2.17;;;1.97;;
5869;SDS011;2961;47.702;9.410;2022-10-16T13:15:06;2.87;;;2.10;;
5869;SDS011;2961;47.702;9.410;2022-10-16T13:17:48;2.30;;;2.20;;
5869;SDS011;2961;47.702;9.410;2022-10-16T13:20:25;4.43;;;2.27;;
5869;SDS011;2961;47.702;9.410;2022-10-16T13:23:02;2.30;;;2.20;;
5869;SDS011;2961;47.702;9.410;2022-10-16T13:25:38;3.60;;;2.47;;
5869;SDS011;2961;47.702;9.410;2022-10-16T13:28:15;2.57;;;2.37;;
5869;SDS011;2961;47.702;9.410;2022-10-16T13:30:51;2.47;;;1.80;;
5869;SDS011;2961;47.702;9.410;2022-10-16T13:33:19;2.00;;;1.87;;
5869;SDS011;2961;47.702;9.410;2022-10-16T13:35:50;2.30;;;1.80;;
5869;SDS011;2961;47.702;9.410;2022-10-16T13:38:19;1.93;;;1.83;;
5869;SDS011;2961;47.702;9.410;2022-10-16T13:40:51;5.67;;;1.80;;
5869;SDS011;2961;47.702;9.410;2022-10-16T13:43:22;2.63;;;1.90;;
5869;SDS011;2961;47.702;9.410;2022-10-16T13:45:52;1.90;;;1.80;;
5869;SDS011;2961;47.702;9.410;2022-10-16T13:48:20;1.83;;;1.77;;
5869;SDS011;2961;47.702;9.410;2022-10-16T13:50:46;3.53;;;1.80;;
5869;SDS011;2961;47.702;9.410;2022-10-16T13:53:25;3.70;;;2.37;;
5869;SDS011;2961;47.702;9.410;2022-10-16T13:55:51;2.00;;;1.90;;
5869;SDS011;2961;47.702;9.410;2022-10-16T13:58:18;3.70;;;1.30;;
5869;SDS011;2961;47.702;9.410;2022-10-16T14:00:54;4.67;;;0.90;;
5869;SDS011;2961;47.702;9.410;2022-10-16T14:03:22;1.80;;;1.00;;
5869;SDS011;2961;47.702;9.410;2022-10-16T14:05:51;1.13;;;1.13;;
5869;SDS011;2961;47.702;9.410;2022-10-16T14:08:20;0.80;;;0.77;;
5869;SDS011;2961;47.702;9.410;2022-10-16T14:10:48;1.37;;;0.70;;
5869;SDS011;2961;47.702;9.410;2022-10-16T14:13:17;1.90;;;0.80;;
5869;SDS011;2961;47.702;9.410;2022-10-16T14:15:48;1.27;;;0.90;;
5869;SDS011;2961;47.702;9.410;2022-10-16T14:18:20;1.37;;;0.87;;
5869;SDS011;2961;47.702;9.410;2022-10-16T14:20:49;2.00;;;0.87;;
5869;SDS011;2961;47.702;9.410;2022-10-16T14:23:19;0.77;;;0.77;;
5869;SDS011;2961;47.702;9.410;2022-10-16T14:25:48;0.70;;;0.70;;
5869;SDS011;2961;47.702;9.410;2022-10-16T14:28:15;0.90;;;0.90;;
5869;SDS011;2961;47.702;9.410;2022-10-16T14:30:49;1.63;;;0.80;;
5869;SDS011;2961;47.702;9.410;2022-10-16T14:33:21;2.33;;;0.70;;
5869;SDS011;2961;47.702;9.410;2022-10-16T14:36:00;4.57;;;0.60;;
5869;SDS011;2961;47.702;9.410;2022-10-16T14:38:29;3.80;;;0.70;;
5869;SDS011;2961;47.702;9.410;2022-10-16T14:40:57;6.90;;;0.80;;
5869;SDS011;2961;47.702;9.410;2022-10-16T14:43:27;1.97;;;0.90;;
5869;SDS011;2961;47.702;9.410;2022-10-16T14:45:58;1.00;;;0.80;;
5869;SDS011;2961;47.702;9.410;2022-10-16T14:48:27;0.97;;;0.97;;
5869;SDS011;2961;47.702;9.410;2022-10-16T14:50:55;3.07;;;1.03;;
5869;SDS011;2961;47.702;9.410;2022-10-16T14:53:21;1.03;;;0.80;;
5869;SDS011;2961;47.702;9.410;2022-10-16T14:55:48;0.97;;;0.97;;
5869;SDS011;2961;47.702;9.410;2022-10-16T14:58:15;1.70;;;1.20;;
5869;SDS011;2961;47.702;9.410;2022-10-16T15:00:44;1.60;;;1.50;;
5869;SDS011;2961;47.702;9.410;2022-10-16T15:03:11;2.80;;;1.97;;
5869;SDS011;2961;47.702;9.410;2022-10-16T15:05:39;2.30;;;2.10;;
5869;SDS011;2961;47.702;9.410;2022-10-16T15:08:06;3.33;;;1.90;;
5869;SDS011;2961;47.702;9.410;2022-10-16T15:10:35;9.70;;;2.13;;
5869;SDS011;2961;47.702;9.410;2022-10-16T15:13:11;2.30;;;2.20;;
5869;SDS011;2961;47.702;9.410;2022-10-16T15:15:40;1.93;;;1.93;;
5869;SDS011;2961;47.702;9.410;2022-10-16T15:18:08;2.00;;;1.90;;
5869;SDS011;2961;47.702;9.410;2022-10-16T15:20:36;2.50;;;2.30;;
5869;SDS011;2961;47.702;9.410;2022-10-16T15:23:06;3.03;;;2.00;;
5869;SDS011;2961;47.702;9.410;2022-10-16T15:25:39;3.07;;;2.43;;
5869;SDS011;2961;47.702;9.410;2022-10-16T15:28:09;3.90;;;2.00;;
5869;SDS011;2961;47.702;9.410;2022-10-16T15:30:37;2.00;;;1.90;;
5869;SDS011;2961;47.702;9.410;2022-10-16T15:33:04;3.17;;;2.27;;
5869;SDS011;2961;47.702;9.410;2022-10-16T15:35:35;1.87;;;1.80;;
5869;SDS011;2961;47.702;9.410;2022-10-16T15:38:02;2.30;;;2.03;;
5869;SDS011;2961;47.702;9.410;2022-10-16T15:40:30;2.70;;;2.50;;
5869;SDS011;2961;47.702;9.410;2022-10-16T15:42:57;4.00;;;2.37;;
5869;SDS011;2961;47.702;9.410;2022-10-16T15:45:24;3.80;;;2.17;;